Terminal Aerodrome Forecast
Issued by NWS

Home | Current Version | Previous Version | Graphics & Text | Print | Product List | Glossary On
Versions: 1 2 3 4 5 6 7 8 9 10 11 12 13 14 15 16 17 18 19
820
FTUS43 KABR 221722
TAFMBG
TAF
KMBG 221722Z 2218/2318 19013KT P6SM SKC
     FM230100 17009KT P6SM FEW250
     FM231400 09004KT P6SM SCT250=

USA.gov is the U.S. government's official web portal to all federal, state and local government web resources and services.